createdAt,value
2022-07-26T00:04:05.444Z,67.07694
2022-07-26T00:09:07.135Z,65.9528
2022-07-26T00:14:09.427Z,66.29111
2022-07-26T00:19:11.135Z,68.31689
2022-07-26T00:24:12.693Z,69.11308
2022-07-26T00:29:14.660Z,72.93896
2022-07-26T00:34:16.217Z,71.20361
2022-07-26T00:39:18.223Z,74.39095
2022-07-26T00:44:20.286Z,76.03111
2022-07-26T00:49:21.759Z,71.91445
2022-07-26T00:54:23.294Z,72.94001
2022-07-26T00:59:24.877Z,68.67984
2022-07-26T01:04:26.392Z,68.43165
2022-07-26T01:09:27.804Z,70.84939
2022-07-26T01:14:30.015Z,69.31191
2022-07-26T01:19:31.769Z,67.81805
2022-07-26T01:24:33.344Z,64.53797
2022-07-26T01:29:36.378Z,65.38703
2022-07-26T01:34:38.178Z,67.173
2022-07-26T01:39:39.827Z,66.19542
2022-07-26T01:44:41.578Z,70.05473
2022-07-26T01:49:43.192Z,71.34796
2022-07-26T01:54:44.717Z,67.63135
2022-07-26T01:59:46.455Z,66.53084
2022-07-26T02:04:48.012Z,66.50711
2022-07-26T02:09:49.658Z,67.98805
2022-07-26T02:14:51.615Z,68.68913
2022-07-26T02:19:53.284Z,68.53274
2022-07-26T02:24:54.757Z,69.62677
2022-07-26T02:29:56.379Z,69.41785
2022-07-26T02:34:57.830Z,69.41994
2022-07-26T02:39:59.366Z,73.03131
2022-07-26T02:45:01.364Z,75.75501
2022-07-26T02:50:02.835Z,78.31284
2022-07-26T02:55:04.254Z,74.52739
2022-07-26T03:00:05.717Z,76.579
2022-07-26T03:05:07.250Z,76.64345
2022-07-26T03:10:08.702Z,75.1768
2022-07-26T03:15:10.432Z,74.50686
2022-07-26T03:20:11.987Z,75.18036
2022-07-26T03:25:13.666Z,78.22156
2022-07-26T03:30:15.213Z,75.06801
2022-07-26T03:35:16.647Z,74.79522
2022-07-26T03:40:18.302Z,79.71411
2022-07-26T03:45:20.115Z,83.2154
2022-07-26T03:50:21.601Z,81.22298
2022-07-26T03:55:23.055Z,79.42845
2022-07-26T04:00:24.910Z,82.10481
2022-07-26T04:05:26.435Z,84.14105
2022-07-26T04:10:29.686Z,80.641
2022-07-26T04:15:31.469Z,80.98954
2022-07-26T04:20:32.929Z,82.76734
2022-07-26T04:25:38.620Z,78.84428
2022-07-26T04:30:43.194Z,80.97841
2022-07-26T04:35:44.885Z,78.03689
2022-07-26T04:40:46.490Z,82.0368
2022-07-26T04:45:48.387Z,80.85489
2022-07-26T04:50:49.923Z,80.71201
2022-07-26T04:55:51.346Z,81.21148
2022-07-26T05:01:10.293Z,80.77717
2022-07-26T05:06:12.361Z,79.66522
2022-07-26T05:11:13.799Z,79.39736
2022-07-26T05:16:15.478Z,78.16148
2022-07-26T05:21:16.966Z,80.10157
2022-07-26T05:26:18.442Z,78.40656
2022-07-26T05:31:20.496Z,80.37617
2022-07-26T05:36:22.039Z,82.85975
2022-07-26T05:41:23.501Z,80.94065
2022-07-26T05:46:25.418Z,85.58716
2022-07-26T05:51:27.146Z,85.0619
2022-07-26T05:56:29.384Z,85.54554
2022-07-26T06:01:30.873Z,81.56825
2022-07-26T06:06:34.549Z,82.5135
2022-07-26T06:11:36.164Z,85.94905
2022-07-26T06:16:39.057Z,82.72916
2022-07-26T06:21:40.549Z,80.92763
2022-07-26T06:26:42.087Z,82.32749
2022-07-26T06:31:43.783Z,82.02904
2022-07-26T06:36:45.297Z,81.27695
2022-07-26T06:41:46.760Z,77.83607
2022-07-26T06:46:48.432Z,77.09162
2022-07-26T06:51:49.968Z,73.67999
2022-07-26T06:56:51.745Z,74.54826
2022-07-26T07:01:58.996Z,72.22318
2022-07-26T07:07:01.771Z,69.07207
2022-07-26T07:12:10.390Z,67.59732
2022-07-26T07:17:15.950Z,70.98197
2022-07-26T07:22:20.094Z,71.24322
2022-07-26T07:27:21.862Z,67.80553
2022-07-26T07:32:24.804Z,70.75448
2022-07-26T07:37:27.949Z,68.36399
2022-07-26T07:42:54.741Z,66.48016
2022-07-26T07:47:56.383Z,65.01984
2022-07-26T07:52:59.206Z,60.64508
2022-07-26T07:58:01.041Z,61.0726
2022-07-26T08:03:02.649Z,62.03203
2022-07-26T08:08:04.095Z,62.33955
2022-07-26T08:13:09.526Z,61.91166
2022-07-26T08:18:12.916Z,58.65699
2022-07-26T08:23:15.669Z,57.78943
2022-07-26T08:28:37.508Z,58.56323
2022-07-26T08:33:40.777Z,55.37448
2022-07-26T08:38:42.540Z,54.0514
2022-07-26T08:43:51.879Z,52.11482
2022-07-26T08:48:55.711Z,55.7458
2022-07-26T08:54:04.141Z,51.50467
2022-07-26T08:59:07.580Z,51.65406
2022-07-26T09:04:09.605Z,45.54449
2022-07-26T09:09:11.576Z,47.26176
2022-07-26T09:14:13.167Z,46.94821
2022-07-26T09:19:15.168Z,46.64942
2022-07-26T09:24:16.608Z,47.11298
2022-07-26T09:29:18.025Z,45.07955
2022-07-26T09:34:20.159Z,42.84506
2022-07-26T09:39:22.850Z,44.08689
2022-07-26T09:44:37.491Z,42.80552
2022-07-26T09:49:49.817Z,41.5193
2022-07-26T09:54:51.405Z,40.96515
2022-07-26T09:59:53.062Z,37.74137
2022-07-26T10:04:54.831Z,36.76694
2022-07-26T10:09:56.297Z,37.43922
2022-07-26T10:14:59.509Z,36.42192
2022-07-26T10:20:01.575Z,34.73077
2022-07-26T10:25:03.136Z,35.10084
2022-07-26T10:30:04.605Z,33.25501
2022-07-26T10:35:06.084Z,31.94968
2022-07-26T10:40:07.739Z,31.67342
2022-07-26T10:45:09.199Z,31.07431
2022-07-26T10:50:11.350Z,30.57845
2022-07-26T10:55:12.843Z,28.46095
2022-07-26T11:00:14.744Z,27.14094
2022-07-26T11:05:16.257Z,27.08582
2022-07-26T11:10:18.015Z,28.24546
2022-07-26T11:15:19.521Z,26.98201
2022-07-26T11:20:24.213Z,25.7794
2022-07-26T11:25:29.088Z,26.95291
2022-07-26T11:30:30.541Z,26.82079
2022-07-26T11:35:32.167Z,26.94206
2022-07-26T11:40:33.593Z,29.78912
2022-07-26T11:45:35.144Z,26.94803
2022-07-26T11:50:36.784Z,25.22462
2022-07-26T11:55:38.237Z,26.39392
2022-07-26T12:00:39.730Z,26.47224
2022-07-26T12:05:41.524Z,26.61711
2022-07-26T12:10:43.060Z,26.39762
2022-07-26T12:15:44.975Z,26.97642
2022-07-26T12:20:50.619Z,26.36097
2022-07-26T12:25:54.667Z,26.39552
2022-07-26T12:30:56.203Z,25.91496
2022-07-26T12:35:57.757Z,26.67263
2022-07-26T12:40:59.237Z,26.2639
2022-07-26T12:46:00.757Z,25.92314
2022-07-26T12:51:03.135Z,25.57343
2022-07-26T12:56:04.691Z,25.78029
2022-07-26T13:01:06.194Z,25.9673
2022-07-26T13:06:07.848Z,25.3673
2022-07-26T13:11:09.255Z,24.51456
2022-07-26T13:16:12.256Z,23.66898
2022-07-26T13:21:14.657Z,20.57178
2022-07-26T13:26:16.064Z,20.92065
2022-07-26T13:31:18.107Z,22.31819
2022-07-26T13:36:19.847Z,21.33425
2022-07-26T13:41:21.310Z,21.50326
2022-07-26T13:46:23.107Z,22.08337
2022-07-26T13:51:25.167Z,21.91134
2022-07-26T13:56:26.778Z,21.65085
2022-07-26T14:01:43.026Z,21.73086
2022-07-26T14:06:46.594Z,21.81218
2022-07-26T14:11:48.353Z,21.97605
2022-07-26T14:16:50.143Z,23.71835
2022-07-26T14:22:00.157Z,24.38845
2022-07-26T14:27:02.877Z,24.62336
2022-07-26T14:32:04.625Z,24.7574
2022-07-26T14:37:41.647Z,24.4582
2022-07-26T14:42:46.382Z,24.58643
2022-07-26T14:47:47.836Z,25.9035
2022-07-26T14:52:49.453Z,26.75552
2022-07-26T14:57:51.011Z,26.44222
2022-07-26T15:02:52.580Z,27.16971
2022-07-26T15:07:54.203Z,26.97332
2022-07-26T15:12:55.643Z,28.17279
2022-07-26T15:17:57.081Z,27.90391
2022-07-26T15:22:58.939Z,28.39898
2022-07-26T15:28:00.592Z,28.90623
2022-07-26T15:33:02.156Z,29.3069
2022-07-26T15:38:03.730Z,31.62831
2022-07-26T15:43:05.217Z,32.09874
2022-07-26T15:48:14.866Z,33.41766
2022-07-26T15:53:19.063Z,32.6172
2022-07-26T15:58:20.510Z,32.24886
2022-07-26T16:03:21.946Z,32.82029
2022-07-26T16:08:23.446Z,35.70494
2022-07-26T16:13:25.099Z,36.58163
2022-07-26T16:18:26.745Z,37.43149
2022-07-26T16:23:28.646Z,37.90165
2022-07-26T16:28:30.109Z,38.2042
2022-07-26T16:33:31.644Z,37.99615
2022-07-26T16:38:34.358Z,39.51968
2022-07-26T16:43:35.811Z,38.91953
2022-07-26T16:48:37.566Z,39.69744
2022-07-26T16:53:39.500Z,38.85583
2022-07-26T16:58:41.117Z,38.63326
2022-07-26T17:03:42.599Z,40.16598
2022-07-26T17:08:44.366Z,42.50149
2022-07-26T17:13:46.016Z,41.3153
2022-07-26T17:18:47.761Z,39.44405
2022-07-26T17:23:49.689Z,39.08357
2022-07-26T17:28:51.082Z,40.33716
2022-07-26T17:33:52.511Z,40.98185
2022-07-26T17:38:54.701Z,39.88669
2022-07-26T17:43:56.486Z,39.17727
2022-07-26T17:48:58.034Z,41.77829
2022-07-26T17:53:59.808Z,41.73451
2022-07-26T17:59:01.234Z,41.0809
2022-07-26T18:04:02.835Z,41.49582
2022-07-26T18:09:04.573Z,41.59771
2022-07-26T18:14:06.324Z,41.26881
2022-07-26T18:19:07.988Z,40.75628
2022-07-26T18:24:16.947Z,41.4379
2022-07-26T18:29:19.121Z,42.39943
2022-07-26T18:34:20.736Z,43.94288
2022-07-26T18:39:22.478Z,44.97394
2022-07-26T18:44:23.999Z,46.70874
2022-07-26T18:49:31.215Z,49.06415
2022-07-26T18:54:33.394Z,49.86125
2022-07-26T18:59:34.900Z,50.47463
2022-07-26T19:04:36.500Z,51.45907
2022-07-26T19:09:38.150Z,51.99394
2022-07-26T19:14:39.558Z,52.63345
2022-07-26T19:19:41.025Z,53.47194
2022-07-26T19:24:42.753Z,53.76294
2022-07-26T19:29:44.216Z,53.35251
2022-07-26T19:34:45.696Z,53.05303
2022-07-26T19:39:47.595Z,54.14471
2022-07-26T19:44:49.022Z,52.52039
2022-07-26T19:49:50.531Z,53.80167
2022-07-26T19:54:53.263Z,54.80704
2022-07-26T19:59:54.929Z,54.31863
2022-07-26T20:04:56.433Z,55.9641
2022-07-26T20:09:57.994Z,58.81074
2022-07-26T20:14:59.768Z,58.55409
2022-07-26T20:20:01.165Z,58.06737
2022-07-26T20:25:03.350Z,59.20982
2022-07-26T20:30:05.105Z,60.64286
2022-07-26T20:35:06.545Z,60.04816
2022-07-26T20:40:09.305Z,60.87029
2022-07-26T20:45:11.365Z,60.85568
2022-07-26T20:50:14.480Z,60.99653
2022-07-26T20:55:16.214Z,60.39827
2022-07-26T21:00:17.871Z,61.1634
2022-07-26T21:05:19.445Z,60.51974
2022-07-26T21:10:21.079Z,60.74094
2022-07-26T21:15:22.712Z,61.00232
2022-07-26T21:20:24.338Z,60.73099
2022-07-26T21:25:26.252Z,61.796
2022-07-26T21:30:27.659Z,62.62358
2022-07-26T21:35:29.330Z,63.27956
2022-07-26T21:40:30.774Z,68.71432
2022-07-26T21:45:32.425Z,66.3766
2022-07-26T21:50:34.063Z,66.86046
2022-07-26T21:55:35.968Z,67.67615
2022-07-26T22:00:37.509Z,69.34475
2022-07-26T22:05:39.282Z,65.85127
2022-07-26T22:10:44.097Z,66.70192
2022-07-26T22:15:45.969Z,66.23365
2022-07-26T22:20:47.563Z,67.9507
2022-07-26T22:25:49.297Z,67.05363
2022-07-26T22:30:50.963Z,66.01598
2022-07-26T22:35:52.400Z,66.65726
2022-07-26T22:40:53.893Z,67.39081
2022-07-26T22:45:55.404Z,68.04388
2022-07-26T22:50:56.911Z,67.91147
2022-07-26T22:55:58.647Z,69.80665
2022-07-26T23:01:00.301Z,72.93456
2022-07-26T23:06:01.784Z,69.02594
2022-07-26T23:11:03.911Z,69.04769
2022-07-26T23:16:05.443Z,70.34458
2022-07-26T23:21:07.089Z,71.00008
2022-07-26T23:26:08.777Z,69.68476
2022-07-26T23:31:10.420Z,72.42636
2022-07-26T23:36:12.024Z,70.61845
2022-07-26T23:41:13.509Z,72.82198
2022-07-26T23:46:15.101Z,71.24298
2022-07-26T23:51:16.823Z,71.23226
2022-07-26T23:56:18.657Z,71.14266
